KEMP/EMP METAR and TAF weather

Enter ICAO airport designator
Station Type Date Time Source
KEMP METAR 2020/09/19 17:53 UTC NOAA

KEMP 191753Z AUTO 15009KT 10SM CLR 23/14 A3024 RMK AO2 SLP237 T02280139 10228 20106 58007


Station Type Date Time Source
KEMP Decoded METAR 2020/09/19 17:53 UTC NOAA

EMPORIA MUNICIPAL AIRPORT, KS, United States (KEMP) 38-20N 96-12W 367M
Sep 19, 2020 - 01:53 PM EDT / 2020.09.19 1753 UTC
Wind: from the SSE (150 degrees) at 10 MPH (9 KT):0
Visibility: 10 mile(s):0
Sky conditions: clear
Temperature: 73.0 F (22.8 C)
Dew Point: 57.0 F (13.9 C)
Relative Humidity: 57%
Pressure (altimeter): 30.24 in. Hg (1024 hPa)
Pressure tendency: 0.02 inches (0.7 hPa) lower than three hours ago
ob: KEMP 191753Z AUTO 15009KT 10SM CLR 23/14 A3024 RMK AO2 SLP237 T02280139 10228 20106 58007
cycle: 18

Station Type Date Time Source
KEMP TAF UTC NOAA

Error!

Example: see airport list